Time;durP1;ratioP1;P1;durP2;ratioP2;P2;SDS_P1;SDS_P2;PMS_P1;PMS_P2;Temp;Humidity;BMP_temperature;BMP_pressure;BME280_temperature;BME280_humidity;BME280_pressure;Samples;Min_cycle;Max_cycle;Signal;HPM_P1;HPM_P2
2022/10/04 00:00:27;;;;;;;;;;;3.40;99.90;;;;;;5111588;27;1623;-56
2022/10/04 00:03:07;;;;;;;;;;;3.40;99.90;;;;;;5075346;27;2065;-56
2022/10/04 00:05:50;;;;;;;;;;;3.30;99.90;;;;;;5111963;27;1693;-56
2022/10/04 00:08:31;;;;;;;;;;;3.30;99.90;;;;;;5092549;27;1446;-56
2022/10/04 00:11:16;;;;;;;;;;;3.30;99.90;;;;;;5098688;27;1385;-56
2022/10/04 00:13:56;;;;;;;;;;;3.20;99.90;;;;;;5112536;27;1607;-56
2022/10/04 00:16:36;;;;;;;;;;;3.10;99.90;;;;;;5093614;27;1291;-56
2022/10/04 00:19:38;;;;;;;;;;;3.10;99.90;;;;;;5111743;27;1658;-56
2022/10/04 00:22:21;;;;;;;;;;;3.20;99.90;;;;;;5113550;27;1335;-56
2022/10/04 00:25:17;;;;;;;;;;;3.20;99.90;;;;;;5088235;27;1715;-56
2022/10/04 00:28:09;;;;;;;;;;;3.20;99.90;;;;;;5092183;27;1349;-56
2022/10/04 00:31:06;;;;;;;;;;;3.20;99.90;;;;;;5111350;27;1692;-56
2022/10/04 00:33:45;;;;;;;;;;;3.20;99.90;;;;;;5112086;27;1525;-56
2022/10/04 00:36:47;;;;;;;;;;;3.10;99.90;;;;;;5093416;27;1394;-56
2022/10/04 00:39:37;;;;;;;;;;;3.00;99.90;;;;;;5111398;27;1622;-56
2022/10/04 00:42:33;;;;;;;;;;;2.80;99.90;;;;;;5113714;27;1601;-56
2022/10/04 00:45:27;;;;;;;;;;;2.80;99.90;;;;;;5111753;27;1630;-56
2022/10/04 00:48:19;;;;;;;;;;;2.80;99.90;;;;;;5113582;27;1580;-56
2022/10/04 00:51:01;;;;;;;;;;;2.70;99.90;;;;;;5090999;27;1262;-57
2022/10/04 00:53:44;;;;;;;;;;;2.70;99.90;;;;;;5091530;27;1527;-56
2022/10/04 00:56:27;;;;;;;;;;;2.70;99.90;;;;;;5113949;27;1297;-56
2022/10/04 00:59:21;;;;;;;;;;;2.60;99.90;;;;;;5109968;27;1470;-56
2022/10/04 01:02:02;;;;;;;;;;;2.60;99.90;;;;;;5058100;27;1362;-56
2022/10/04 01:04:44;;;;;;;;;;;2.50;99.90;;;;;;5111087;27;1542;-56
2022/10/04 01:07:27;;;;;;;;;;;2.50;99.90;;;;;;5113827;27;1424;-56
2022/10/04 01:10:08;;;;;;;;;;;2.40;99.90;;;;;;5104011;27;1668;-56
2022/10/04 01:12:50;;;;;;;;;;;2.40;99.90;;;;;;5091167;27;1653;-56
2022/10/04 01:15:33;;;;;;;;;;;2.40;99.90;;;;;;5110798;27;1575;-56
2022/10/04 01:18:29;;;;;;;;;;;2.40;99.90;;;;;;5060355;27;1467;-56
2022/10/04 01:21:09;;;;;;;;;;;2.40;99.90;;;;;;5109690;27;1289;-56
2022/10/04 01:23:49;;;;;;;;;;;2.40;99.90;;;;;;5086151;27;2123;-56
2022/10/04 01:26:38;;;;;;;;;;;2.40;99.90;;;;;;5102694;27;1468;-56
2022/10/04 01:29:18;;;;;;;;;;;2.30;99.90;;;;;;5109517;27;2085;-56
2022/10/04 01:31:57;;;;;;;;;;;2.30;99.90;;;;;;5093495;27;1174;-56
2022/10/04 01:34:40;;;;;;;;;;;2.30;99.90;;;;;;5068852;27;2091;-56
2022/10/04 01:37:18;;;;;;;;;;;2.40;99.90;;;;;;5101151;27;1380;-56
2022/10/04 01:39:56;;;;;;;;;;;2.50;99.90;;;;;;5069721;27;2129;-56
2022/10/04 01:42:36;;;;;;;;;;;2.60;99.90;;;;;;5093434;27;1680;-56
2022/10/04 01:45:19;;;;;;;;;;;2.50;99.90;;;;;;5112941;27;2104;-56
2022/10/04 01:48:00;;;;;;;;;;;2.40;99.90;;;;;;5112594;27;1307;-56
2022/10/04 01:50:41;;;;;;;;;;;2.40;99.90;;;;;;5081071;27;2074;-56
2022/10/04 01:53:23;;;;;;;;;;;2.40;99.90;;;;;;5113245;27;1382;-57
2022/10/04 01:56:07;;;;;;;;;;;2.30;99.90;;;;;;5107361;27;1281;-56
2022/10/04 01:58:48;;;;;;;;;;;2.30;99.90;;;;;;5086332;27;2133;-56
2022/10/04 02:01:30;;;;;;;;;;;2.30;99.90;;;;;;5098917;27;1796;-57
2022/10/04 02:04:13;;;;;;;;;;;2.30;99.90;;;;;;5079443;27;2057;-56
2022/10/04 02:06:53;;;;;;;;;;;2.30;99.90;;;;;;5073305;27;1405;-56
2022/10/04 02:09:34;;;;;;;;;;;2.40;99.90;;;;;;5109840;27;2235;-57
2022/10/04 02:12:14;;;;;;;;;;;2.40;99.90;;;;;;5127968;27;1380;-56
2022/10/04 02:14:54;;;;;;;;;;;2.40;99.90;;;;;;5088290;27;1974;-56
2022/10/04 02:17:34;;;;;;;;;;;2.50;99.90;;;;;;5112886;27;1712;-57
2022/10/04 02:20:14;;;;;;;;;;;2.50;99.90;;;;;;5108913;27;2160;-57
2022/10/04 02:22:58;;;;;;;;;;;2.60;99.90;;;;;;5114187;27;1648;-57
2022/10/04 02:25:37;;;;;;;;;;;2.60;99.90;;;;;;5110127;27;2232;-56
2022/10/04 02:28:17;;;;;;;;;;;2.70;99.90;;;;;;5113277;27;1556;-56
2022/10/04 02:33:52;;;;;;;;;;;2.90;99.90;;;;;;5069634;27;2154;-56
2022/10/04 02:36:32;;;;;;;;;;;3.00;99.90;;;;;;5108171;27;1295;-56
2022/10/04 02:39:15;;;;;;;;;;;3.10;99.90;;;;;;5089806;27;2174;-56
2022/10/04 02:41:57;;;;;;;;;;;3.30;99.90;;;;;;5114395;27;1641;-56
2022/10/04 02:44:39;;;;;;;;;;;3.40;99.90;;;;;;5071001;27;2285;-56
2022/10/04 02:47:20;;;;;;;;;;;3.50;99.90;;;;;;5113546;27;1390;-56
2022/10/04 02:50:00;;;;;;;;;;;3.60;99.90;;;;;;5111634;27;2176;-56
2022/10/04 02:52:43;;;;;;;;;;;3.70;99.90;;;;;;5113957;27;1319;-57
2022/10/04 02:55:23;;;;;;;;;;;3.70;99.90;;;;;;5089859;27;2166;-56
2022/10/04 02:58:08;;;;;;;;;;;3.80;99.90;;;;;;5095465;27;1347;-56
2022/10/04 03:00:48;;;;;;;;;;;3.80;99.90;;;;;;5109071;27;2363;-56
2022/10/04 03:03:28;;;;;;;;;;;3.80;99.90;;;;;;5113450;27;1307;-56
2022/10/04 03:06:08;;;;;;;;;;;3.90;99.90;;;;;;5108798;27;1936;-56
2022/10/04 03:08:49;;;;;;;;;;;3.90;99.90;;;;;;5112316;27;2063;-56
2022/10/04 03:11:30;;;;;;;;;;;3.90;99.90;;;;;;5103028;27;1305;-56
2022/10/04 03:14:13;;;;;;;;;;;3.90;99.90;;;;;;5111212;27;2214;-56
2022/10/04 03:16:54;;;;;;;;;;;3.90;99.90;;;;;;5106313;27;1677;-56
2022/10/04 03:19:33;;;;;;;;;;;3.90;99.90;;;;;;5087462;27;2258;-57
2022/10/04 03:22:12;;;;;;;;;;;4.00;99.90;;;;;;5092278;27;1360;-56
2022/10/04 03:24:53;;;;;;;;;;;4.00;99.90;;;;;;5108140;27;1944;-54
2022/10/04 03:27:34;;;;;;;;;;;4.00;99.90;;;;;;5096142;27;1725;-57
2022/10/04 03:30:14;;;;;;;;;;;4.00;99.90;;;;;;5106596;27;1603;-56
2022/10/04 03:32:53;;;;;;;;;;;4.00;99.90;;;;;;5108053;27;1397;-56
2022/10/04 03:35:33;;;;;;;;;;;4.00;99.90;;;;;;5109950;27;1477;-56
2022/10/04 03:38:12;;;;;;;;;;;4.10;99.90;;;;;;5112530;27;1316;-56
2022/10/04 03:40:53;;;;;;;;;;;4.10;99.90;;;;;;5073056;27;1768;-57
2022/10/04 03:43:34;;;;;;;;;;;4.10;99.90;;;;;;5091597;27;1214;-56
2022/10/04 03:46:13;;;;;;;;;;;4.10;99.90;;;;;;5086959;27;1324;-56
2022/10/04 03:48:53;;;;;;;;;;;4.20;99.90;;;;;;5067757;27;1645;-56
2022/10/04 03:51:32;;;;;;;;;;;4.20;99.90;;;;;;5112829;27;1309;-56
2022/10/04 03:54:14;;;;;;;;;;;4.20;99.90;;;;;;5109390;27;1574;-57
2022/10/04 03:56:54;;;;;;;;;;;4.20;99.90;;;;;;5092659;27;1847;-56
2022/10/04 03:59:33;;;;;;;;;;;4.20;99.90;;;;;;5106534;27;1901;-56
2022/10/04 04:02:15;;;;;;;;;;;4.20;99.90;;;;;;5107433;27;1660;-56
2022/10/04 04:04:59;;;;;;;;;;;4.20;99.90;;;;;;5087183;27;1556;-56
2022/10/04 04:07:38;;;;;;;;;;;4.30;99.90;;;;;;5093477;27;1308;-57
2022/10/04 04:10:21;;;;;;;;;;;4.20;99.90;;;;;;5067011;27;1657;-56
2022/10/04 04:13:01;;;;;;;;;;;4.20;99.90;;;;;;5095957;27;1632;-56
2022/10/04 04:15:40;;;;;;;;;;;4.20;99.90;;;;;;5095100;27;1751;-57
2022/10/04 04:18:21;;;;;;;;;;;4.20;99.90;;;;;;5109192;27;1553;-57
2022/10/04 04:21:01;;;;;;;;;;;4.20;99.90;;;;;;5105707;27;2018;-56
2022/10/04 04:23:41;;;;;;;;;;;4.20;99.90;;;;;;5111939;27;1687;-56
2022/10/04 04:26:23;;;;;;;;;;;4.20;99.90;;;;;;5109243;27;1810;-57
2022/10/04 04:29:05;;;;;;;;;;;4.20;99.90;;;;;;5067724;27;1701;-56
2022/10/04 04:31:46;;;;;;;;;;;4.20;99.90;;;;;;5110875;27;1232;-57
2022/10/04 04:34:28;;;;;;;;;;;4.20;99.90;;;;;;5111104;27;1619;-56
2022/10/04 04:37:10;;;;;;;;;;;4.10;99.90;;;;;;5081631;27;1421;-56
2022/10/04 04:39:54;;;;;;;;;;;4.10;99.90;;;;;;5107870;27;1563;-56
2022/10/04 04:42:34;;;;;;;;;;;4.10;99.90;;;;;;5093611;27;1332;-56
2022/10/04 04:45:15;;;;;;;;;;;4.00;99.90;;;;;;5109572;27;1823;-56
2022/10/04 04:47:56;;;;;;;;;;;4.10;99.90;;;;;;5114321;27;1299;-56
2022/10/04 04:50:37;;;;;;;;;;;4.10;99.90;;;;;;5110333;27;1585;-56
2022/10/04 04:53:18;;;;;;;;;;;4.10;99.90;;;;;;5113274;27;1288;-56
2022/10/04 04:55:58;;;;;;;;;;;4.10;99.90;;;;;;5106045;27;1911;-56
2022/10/04 04:58:38;;;;;;;;;;;4.10;99.90;;;;;;5112086;27;1696;-56
2022/10/04 05:01:19;;;;;;;;;;;4.10;99.90;;;;;;5113481;27;1682;-56
2022/10/04 05:04:01;;;;;;;;;;;4.20;99.90;;;;;;5090598;27;1701;-56
2022/10/04 05:06:41;;;;;;;;;;;4.10;99.90;;;;;;5113230;27;1522;-56
2022/10/04 05:09:24;;;;;;;;;;;4.20;99.90;;;;;;5129517;27;1627;-56
2022/10/04 05:12:08;;;;;;;;;;;4.20;99.90;;;;;;5095515;27;1691;-56
2022/10/04 05:14:49;;;;;;;;;;;4.30;99.90;;;;;;5110641;27;1599;-56
2022/10/04 05:17:31;;;;;;;;;;;4.30;99.90;;;;;;5109455;27;1316;-56
2022/10/04 05:20:13;;;;;;;;;;;4.30;99.90;;;;;;5089837;27;1558;-56
2022/10/04 05:22:51;;;;;;;;;;;4.30;99.90;;;;;;5113035;27;1724;-56
2022/10/04 05:25:32;;;;;;;;;;;4.40;99.90;;;;;;5082814;27;1701;-56
2022/10/04 05:28:13;;;;;;;;;;;4.40;99.90;;;;;;5082271;27;1729;-56
2022/10/04 05:31:00;;;;;;;;;;;4.40;99.90;;;;;;5106076;27;1776;-56
2022/10/04 05:33:44;;;;;;;;;;;4.50;99.90;;;;;;5089340;27;1588;-56
2022/10/04 05:36:36;;;;;;;;;;;4.50;99.90;;;;;;5097200;27;1832;-56
2022/10/04 05:39:19;;;;;;;;;;;4.60;99.90;;;;;;5103912;27;1809;-56
2022/10/04 05:42:01;;;;;;;;;;;4.60;99.90;;;;;;5096218;27;2000;-56
2022/10/04 05:44:46;;;;;;;;;;;4.60;99.90;;;;;;5110524;27;1747;-56
2022/10/04 05:47:26;;;;;;;;;;;4.60;99.90;;;;;;5113661;27;1297;-55
2022/10/04 05:50:05;;;;;;;;;;;4.70;99.90;;;;;;5108221;27;1571;-56
2022/10/04 05:52:46;;;;;;;;;;;4.70;99.90;;;;;;5073606;27;1458;-56
2022/10/04 05:55:27;;;;;;;;;;;4.70;99.90;;;;;;5109069;27;1605;-56
2022/10/04 05:58:17;;;;;;;;;;;4.80;99.90;;;;;;5093997;27;2200;-56
2022/10/04 06:01:07;;;;;;;;;;;4.90;99.90;;;;;;5104217;27;1858;-56
2022/10/04 06:03:59;;;;;;;;;;;4.90;99.90;;;;;;5090238;27;1672;-56
2022/10/04 06:06:40;;;;;;;;;;;5.00;99.90;;;;;;5106613;27;2323;-56
2022/10/04 06:09:37;;;;;;;;;;;5.00;99.90;;;;;;5090917;27;1992;-56
2022/10/04 06:12:21;;;;;;;;;;;5.00;99.90;;;;;;5110442;27;1915;-56
2022/10/04 06:15:23;;;;;;;;;;;5.00;99.90;;;;;;5108046;27;1681;-56
2022/10/04 06:18:08;;;;;;;;;;;5.10;99.90;;;;;;5095977;27;1597;-56
2022/10/04 06:20:59;;;;;;;;;;;5.20;99.90;;;;;;5089772;27;1847;-56
2022/10/04 06:23:44;;;;;;;;;;;5.20;99.90;;;;;;5071842;27;1596;-56
2022/10/04 06:26:25;;;;;;;;;;;5.30;99.90;;;;;;5090237;27;1673;-56
2022/10/04 06:29:06;;;;;;;;;;;5.40;99.90;;;;;;5108261;27;1684;-56
2022/10/04 06:32:10;;;;;;;;;;;5.50;99.90;;;;;;5089076;27;1691;-56
2022/10/04 06:35:17;;;;;;;;;;;5.60;99.90;;;;;;5093106;27;2419;-56
2022/10/04 06:38:05;;;;;;;;;;;5.70;99.90;;;;;;5107371;27;1734;-56
2022/10/04 06:40:53;;;;;;;;;;;5.80;99.90;;;;;;5086700;27;1828;-56
2022/10/04 06:43:50;;;;;;;;;;;6.00;99.90;;;;;;5113413;27;1394;-56
2022/10/04 06:46:35;;;;;;;;;;;6.20;99.90;;;;;;5108305;27;1362;-56
2022/10/04 06:49:20;;;;;;;;;;;6.30;99.90;;;;;;5110480;27;1610;-56
2022/10/04 06:52:15;;;;;;;;;;;6.20;99.90;;;;;;5095690;27;1205;-56
2022/10/04 06:55:02;;;;;;;;;;;6.30;99.90;;;;;;5109725;27;1594;-56
2022/10/04 06:57:49;;;;;;;;;;;6.40;99.90;;;;;;5110995;27;1666;-56
2022/10/04 07:00:29;;;;;;;;;;;6.40;99.90;;;;;;5105601;27;1800;-56
2022/10/04 07:03:12;;;;;;;;;;;6.40;99.90;;;;;;5106284;27;1775;-56
2022/10/04 07:05:52;;;;;;;;;;;6.30;99.90;;;;;;5078026;27;1837;-56
2022/10/04 07:08:35;;;;;;;;;;;6.30;99.90;;;;;;5092778;27;1313;-56
2022/10/04 07:11:20;;;;;;;;;;;6.40;99.90;;;;;;5113082;27;1301;-56
2022/10/04 07:14:04;;;;;;;;;;;6.50;99.90;;;;;;5111945;27;1614;-56
2022/10/04 07:16:46;;;;;;;;;;;6.50;99.90;;;;;;5105140;27;2143;-56
2022/10/04 07:19:29;;;;;;;;;;;6.60;99.90;;;;;;5085210;27;1617;-56
2022/10/04 07:22:16;;;;;;;;;;;6.80;99.90;;;;;;5090167;27;1877;-56
2022/10/04 07:25:11;;;;;;;;;;;6.90;99.90;;;;;;5108190;27;1874;-56
2022/10/04 07:29:19;;;;;;;;;;;7.00;99.90;;;;;;5118592;27;1582;-56
2022/10/04 07:30:55;;;;;;;;;;;7.10;99.90;;;;;;5100664;27;1896;-56
2022/10/04 07:33:41;;;;;;;;;;;7.30;99.90;;;;;;5092499;27;1659;-56
2022/10/04 07:36:22;;;;;;;;;;;7.50;99.90;;;;;;5086493;27;2071;-56
2022/10/04 07:39:04;;;;;;;;;;;7.60;99.90;;;;;;5103711;27;1754;-56
2022/10/04 07:41:46;;;;;;;;;;;7.90;99.90;;;;;;5107106;27;2234;-56
2022/10/04 07:44:29;;;;;;;;;;;7.90;99.90;;;;;;5110505;27;1687;-56
2022/10/04 07:47:13;;;;;;;;;;;8.10;99.90;;;;;;5085739;27;1587;-56
2022/10/04 07:49:53;;;;;;;;;;;8.20;99.90;;;;;;5109005;27;1893;-56
2022/10/04 07:52:37;;;;;;;;;;;8.30;99.90;;;;;;5111310;27;1635;-56
2022/10/04 07:55:22;;;;;;;;;;;8.60;99.90;;;;;;5107226;27;1591;-56
2022/10/04 07:58:13;;;;;;;;;;;8.80;99.90;;;;;;5092621;27;1434;-56
2022/10/04 08:00:55;;;;;;;;;;;8.90;99.90;;;;;;5108201;27;1683;-56
2022/10/04 08:03:50;;;;;;;;;;;9.20;99.90;;;;;;5111653;27;1579;-56
2022/10/04 08:06:34;;;;;;;;;;;9.30;99.90;;;;;;5106480;27;1881;-56
2022/10/04 08:09:21;;;;;;;;;;;9.20;99.90;;;;;;5089709;27;1630;-56
2022/10/04 08:12:06;;;;;;;;;;;9.30;99.90;;;;;;5097772;27;1367;-56
2022/10/04 08:14:55;;;;;;;;;;;9.40;99.90;;;;;;5090150;27;1654;-56
2022/10/04 08:17:41;;;;;;;;;;;9.40;99.90;;;;;;5112627;27;1382;-56
2022/10/04 08:20:26;;;;;;;;;;;9.60;99.90;;;;;;5108442;27;1676;-56
2022/10/04 08:23:16;;;;;;;;;;;9.60;99.90;;;;;;5095118;27;2089;-56
2022/10/04 08:26:01;;;;;;;;;;;9.80;99.90;;;;;;5099490;27;3132;-56
2022/10/04 08:31:57;;;;;;;;;;;10.20;99.90;;;;;;5113503;27;1200;-56
2022/10/04 08:34:44;;;;;;;;;;;10.40;99.90;;;;;;5108144;27;1614;-56
2022/10/04 08:37:30;;;;;;;;;;;10.40;99.90;;;;;;5113474;27;1378;-56
2022/10/04 08:40:26;;;;;;;;;;;10.40;99.90;;;;;;5107856;27;1654;-56
2022/10/04 08:43:25;;;;;;;;;;;10.60;99.90;;;;;;5053859;27;1893;-56
2022/10/04 08:46:14;;;;;;;;;;;10.80;99.90;;;;;;5082226;27;1657;-56
2022/10/04 08:49:16;;;;;;;;;;;11.20;99.90;;;;;;5109443;27;1604;-56
2022/10/04 08:52:10;;;;;;;;;;;11.50;99.90;;;;;;5102593;27;1494;-56
2022/10/04 08:55:03;;;;;;;;;;;12.00;99.90;;;;;;5093339;27;1662;-56
2022/10/04 08:58:05;;;;;;;;;;;12.40;99.90;;;;;;5111703;27;1374;-56
2022/10/04 09:00:55;;;;;;;;;;;12.50;99.90;;;;;;5107386;27;1772;-56
2022/10/04 09:04:00;;;;;;;;;;;12.80;99.90;;;;;;5111242;27;1550;-56
2022/10/04 09:06:42;;;;;;;;;;;13.00;99.90;;;;;;5111432;27;1331;-56
2022/10/04 09:09:41;;;;;;;;;;;12.80;99.90;;;;;;5116970;22;1902;-52
2022/10/04 09:12:29;;;;;;;;;;;12.70;99.90;;;;;;5110501;27;1393;-51
2022/10/04 09:15:18;;;;;;;;;;;12.80;99.90;;;;;;5106977;27;2098;-52
2022/10/04 09:18:01;;;;;;;;;;;13.00;99.90;;;;;;5105498;27;1822;-53
2022/10/04 09:20:54;;;;;;;;;;;13.20;99.90;;;;;;5106328;27;1611;-49
2022/10/04 09:24:00;;;;;;;;;;;13.30;99.90;;;;;;5110627;27;1292;-51
2022/10/04 09:26:43;;;;;;;;;;;13.40;99.90;;;;;;5110868;27;1382;-50
2022/10/04 09:29:34;;;;;;;;;;;13.60;99.90;;;;;;5104943;27;1556;-53
2022/10/04 09:32:40;;;;;;;;;;;13.40;99.90;;;;;;5111242;27;1292;-51
2022/10/04 09:35:46;;;;;;;;;;;13.20;99.90;;;;;;5106525;27;1967;-50
2022/10/04 09:38:51;;;;;;;;;;;13.00;99.90;;;;;;5080560;27;1688;-52
2022/10/04 09:41:39;;;;;;;;;;;12.80;99.90;;;;;;5108491;27;2165;-50
2022/10/04 09:44:35;;;;;;;;;;;12.60;99.90;;;;;;5066357;27;1661;-51
2022/10/04 09:47:21;;;;;;;;;;;12.70;99.90;;;;;;5110417;27;1345;-51
2022/10/04 09:50:17;;;;;;;;;;;12.80;99.90;;;;;;5105302;27;1860;-52
2022/10/04 09:53:05;;;;;;;;;;;13.00;99.90;;;;;;5110983;27;1261;-53
2022/10/04 09:55:51;;;;;;;;;;;13.00;99.90;;;;;;5106030;27;1816;-50
2022/10/04 09:58:42;;;;;;;;;;;13.20;99.90;;;;;;5109898;27;1483;-51
2022/10/04 10:01:27;;;;;;;;;;;13.50;99.90;;;;;;5108394;27;1485;-51
2022/10/04 10:04:17;;;;;;;;;;;13.60;99.90;;;;;;5095883;27;1949;-50
2022/10/04 10:07:04;;;;;;;;;;;14.00;99.90;;;;;;5104921;27;1867;-53
2022/10/04 10:16:00;;;;;;;;;;;14.40;99.90;;;;;;5096809;27;1850;-50
2022/10/04 10:18:44;;;;;;;;;;;14.50;99.90;;;;;;5110101;27;1666;-50
2022/10/04 10:21:39;;;;;;;;;;;14.60;99.90;;;;;;5112320;27;1312;-51
2022/10/04 10:24:34;;;;;;;;;;;14.90;99.90;;;;;;5108655;27;1758;-52
2022/10/04 10:27:28;;;;;;;;;;;15.40;99.90;;;;;;5088888;27;1693;-52
2022/10/04 10:30:19;;;;;;;;;;;16.00;99.90;;;;;;5099847;27;2005;-54
2022/10/04 10:33:10;;;;;;;;;;;16.30;99.90;;;;;;5111381;27;1395;-52
2022/10/04 10:35:52;;;;;;;;;;;16.40;99.90;;;;;;5081283;27;1727;-52
2022/10/04 10:38:39;;;;;;;;;;;16.40;99.90;;;;;;5080271;27;1491;-50
2022/10/04 10:41:43;;;;;;;;;;;16.40;99.90;;;;;;5111215;27;1328;-51
2022/10/04 10:44:28;;;;;;;;;;;16.30;99.90;;;;;;5120910;27;1570;-52
2022/10/04 10:47:14;;;;;;;;;;;16.00;99.90;;;;;;5111024;27;1297;-52
2022/10/04 10:50:02;;;;;;;;;;;15.80;99.90;;;;;;5114582;27;1543;-50
2022/10/04 10:52:55;;;;;;;;;;;15.80;99.90;;;;;;5106394;27;1960;-51
2022/10/04 10:56:01;;;;;;;;;;;15.60;99.90;;;;;;5101786;27;1776;-51
2022/10/04 10:58:57;;;;;;;;;;;15.60;99.90;;;;;;5070701;27;1660;-51
2022/10/04 11:01:53;;;;;;;;;;;15.50;99.90;;;;;;5070746;27;1240;-50
2022/10/04 11:04:44;;;;;;;;;;;15.70;99.90;;;;;;5109220;27;1626;-50
2022/10/04 11:07:36;;;;;;;;;;;15.80;99.90;;;;;;5101102;27;1608;-50
2022/10/04 11:10:25;;;;;;;;;;;16.00;99.90;;;;;;5107967;27;1752;-51
2022/10/04 11:13:17;;;;;;;;;;;16.00;99.90;;;;;;5109654;27;1539;-50
2022/10/04 11:16:05;;;;;;;;;;;16.00;99.90;;;;;;5103607;27;1778;-52
2022/10/04 11:19:00;;;;;;;;;;;15.80;99.90;;;;;;5083278;27;1722;-53
2022/10/04 11:21:53;;;;;;;;;;;15.50;99.90;;;;;;5099588;27;1988;-51
2022/10/04 11:24:46;;;;;;;;;;;15.20;99.90;;;;;;5106831;27;1605;-53
2022/10/04 11:27:30;;;;;;;;;;;14.80;99.90;;;;;;5110306;27;1356;-51
2022/10/04 11:30:14;;;;;;;;;;;14.60;99.90;;;;;;5083275;27;1640;-53
2022/10/04 11:33:09;;;;;;;;;;;14.30;99.90;;;;;;5110276;27;1441;-51
2022/10/04 11:36:01;;;;;;;;;;;14.20;99.90;;;;;;5108651;27;2347;-52
2022/10/04 11:38:57;;;;;;;;;;;14.10;99.90;;;;;;5097916;27;1610;-52
2022/10/04 11:41:42;;;;;;;;;;;14.10;99.90;;;;;;5110357;27;1744;-52
2022/10/04 11:44:39;;;;;;;;;;;14.10;99.90;;;;;;5106445;27;1598;-51
2022/10/04 11:47:27;;;;;;;;;;;14.10;99.90;;;;;;5111062;27;1362;-52
2022/10/04 11:50:21;;;;;;;;;;;14.20;99.90;;;;;;5065718;27;1626;-50
2022/10/04 11:53:17;;;;;;;;;;;14.20;99.90;;;;;;5093282;27;1382;-50
2022/10/04 11:56:15;;;;;;;;;;;14.20;99.90;;;;;;5102757;27;1961;-51
2022/10/04 11:59:00;;;;;;;;;;;14.20;99.90;;;;;;5095741;27;1611;-52
2022/10/04 12:01:46;;;;;;;;;;;14.20;99.90;;;;;;5111901;27;1409;-51
2022/10/04 12:04:44;;;;;;;;;;;14.30;99.90;;;;;;5109272;27;1684;-52
2022/10/04 12:07:27;;;;;;;;;;;14.40;99.90;;;;;;5111696;27;1838;-49
2022/10/04 12:10:15;;;;;;;;;;;14.40;99.90;;;;;;5068330;27;1787;-51
2022/10/04 12:13:10;;;;;;;;;;;14.30;99.90;;;;;;5111142;27;1953;-51
2022/10/04 12:16:00;;;;;;;;;;;14.30;99.90;;;;;;5085782;27;1853;-53
2022/10/04 12:18:58;;;;;;;;;;;14.20;99.90;;;;;;5079493;27;1681;-50
2022/10/04 12:21:41;;;;;;;;;;;14.20;99.90;;;;;;5111322;27;1655;-52
2022/10/04 12:24:28;;;;;;;;;;;14.30;99.90;;;;;;5109031;27;2179;-49
2022/10/04 12:27:23;;;;;;;;;;;14.30;99.90;;;;;;5068664;27;1464;-50
2022/10/04 12:30:14;;;;;;;;;;;14.30;99.90;;;;;;5066600;27;1637;-51
2022/10/04 12:32:55;;;;;;;;;;;14.30;99.90;;;;;;5109761;27;1875;-52
2022/10/04 12:35:40;;;;;;;;;;;14.40;99.90;;;;;;5071067;27;1971;-50
2022/10/04 12:38:23;;;;;;;;;;;14.30;99.90;;;;;;5099926;27;1862;-51
2022/10/04 12:41:10;;;;;;;;;;;14.40;99.90;;;;;;5095547;27;1398;-53
2022/10/04 12:43:56;;;;;;;;;;;14.50;99.90;;;;;;5110215;27;1685;-52
2022/10/04 12:46:40;;;;;;;;;;;14.60;99.90;;;;;;5091872;27;1304;-51
2022/10/04 12:49:22;;;;;;;;;;;14.60;99.90;;;;;;5069933;27;2417;-50
2022/10/04 12:52:05;;;;;;;;;;;14.50;99.90;;;;;;5093936;27;1969;-53
2022/10/04 12:54:46;;;;;;;;;;;14.50;99.90;;;;;;5106690;27;2033;-50
2022/10/04 12:57:32;;;;;;;;;;;14.60;99.90;;;;;;5087415;27;1988;-52
2022/10/04 13:00:17;;;;;;;;;;;14.70;99.90;;;;;;5085392;27;1967;-54
2022/10/04 13:03:04;;;;;;;;;;;14.60;99.90;;;;;;5090648;27;1346;-52
2022/10/04 13:05:51;;;;;;;;;;;14.60;99.90;;;;;;5089309;27;1931;-52
2022/10/04 13:08:38;;;;;;;;;;;14.70;99.90;;;;;;5101398;27;1884;-52
2022/10/04 13:11:29;;;;;;;;;;;14.70;99.90;;;;;;5112285;27;1556;-51
2022/10/04 13:14:17;;;;;;;;;;;14.70;99.90;;;;;;5109593;27;1802;-53
2022/10/04 13:16:59;;;;;;;;;;;14.80;99.90;;;;;;5102178;27;1640;-54
2022/10/04 13:19:49;;;;;;;;;;;14.80;99.90;;;;;;5106627;27;1728;-52
2022/10/04 13:22:34;;;;;;;;;;;14.70;99.90;;;;;;5091711;27;1846;-52
2022/10/04 13:25:18;;;;;;;;;;;14.80;99.90;;;;;;5086878;27;1885;-51
2022/10/04 13:28:00;;;;;;;;;;;14.80;99.90;;;;;;5111229;27;1547;-52
2022/10/04 13:30:45;;;;;;;;;;;14.80;99.90;;;;;;5086200;27;1926;-52
2022/10/04 13:33:26;;;;;;;;;;;14.80;99.90;;;;;;5112492;27;1827;-53
2022/10/04 13:36:08;;;;;;;;;;;14.80;99.90;;;;;;5106365;27;1289;-51
2022/10/04 13:39:01;;;;;;;;;;;14.80;99.90;;;;;;5096877;27;1983;-53
2022/10/04 13:41:56;;;;;;;;;;;14.80;99.90;;;;;;5112155;27;2005;-53
2022/10/04 13:44:43;;;;;;;;;;;14.80;99.90;;;;;;5108514;27;1938;-54
2022/10/04 13:47:28;;;;;;;;;;;14.80;99.90;;;;;;5111007;27;1862;-53
2022/10/04 13:50:26;;;;;;;;;;;14.80;99.90;;;;;;5112543;27;1776;-51
2022/10/04 13:59:21;;;;;;;;;;;14.70;99.90;;;;;;5109722;27;1969;-52
2022/10/04 14:02:16;;;;;;;;;;;14.70;99.90;;;;;;5091455;27;1846;-52
2022/10/04 14:05:11;;;;;;;;;;;14.60;99.90;;;;;;5109087;27;1966;-50
2022/10/04 14:08:09;;;;;;;;;;;14.60;99.90;;;;;;5103652;27;2527;-52
2022/10/04 14:11:00;;;;;;;;;;;14.70;99.90;;;;;;5108531;27;2015;-53
2022/10/04 14:13:52;;;;;;;;;;;14.60;99.90;;;;;;5111871;27;1373;-51
2022/10/04 14:16:39;;;;;;;;;;;14.50;99.90;;;;;;5129367;27;1514;-52
2022/10/04 14:19:35;;;;;;;;;;;14.40;99.90;;;;;;5094310;27;1803;-53
2022/10/04 14:22:25;;;;;;;;;;;14.40;99.90;;;;;;5108941;27;2036;-52
2022/10/04 14:25:22;;;;;;;;;;;14.40;99.90;;;;;;5093046;27;2102;-52
2022/10/04 14:28:16;;;;;;;;;;;14.30;99.90;;;;;;5082240;27;2046;-51
2022/10/04 14:31:01;;;;;;;;;;;14.30;99.90;;;;;;5105877;27;1932;-53
2022/10/04 14:33:54;;;;;;;;;;;14.30;99.90;;;;;;5112630;27;1196;-50
2022/10/04 14:36:45;;;;;;;;;;;14.30;99.90;;;;;;5034420;27;2682423;-50
2022/10/04 14:39:36;;;;;;;;;;;14.20;99.90;;;;;;5076563;27;1793;-53
2022/10/04 14:42:30;;;;;;;;;;;14.10;99.90;;;;;;5100504;27;1749;-52
2022/10/04 14:45:19;;;;;;;;;;;14.10;99.90;;;;;;5094003;27;2082;-51
2022/10/04 14:48:08;;;;;;;;;;;14.10;99.90;;;;;;5102682;27;1870;-51
2022/10/04 14:50:56;;;;;;;;;;;14.00;99.90;;;;;;5111550;27;1358;-52
2022/10/04 14:53:39;;;;;;;;;;;14.00;99.90;;;;;;5111111;27;1463;-51
2022/10/04 14:56:31;;;;;;;;;;;14.00;99.90;;;;;;5112698;27;1263;-52
2022/10/04 14:59:21;;;;;;;;;;;13.90;99.90;;;;;;5111838;27;1628;-50
2022/10/04 15:02:23;;;;;;;;;;;13.80;99.90;;;;;;5098427;27;2924;-51
2022/10/04 15:05:08;;;;;;;;;;;13.80;99.90;;;;;;5095680;27;2049;-51
2022/10/04 15:07:51;;;;;;;;;;;13.70;99.90;;;;;;5092544;27;1726;-53
2022/10/04 15:10:31;;;;;;;;;;;13.60;99.90;;;;;;5070666;22;2154;-57
2022/10/04 15:13:17;;;;;;;;;;;13.50;99.90;;;;;;5084684;27;2025;-57
2022/10/04 15:16:07;;;;;;;;;;;13.40;99.90;;;;;;5094228;27;2228;-58
2022/10/04 15:18:52;;;;;;;;;;;13.30;99.90;;;;;;5107852;27;1807;-57
2022/10/04 15:21:41;;;;;;;;;;;13.30;99.90;;;;;;5126059;27;1654;-57
2022/10/04 15:24:26;;;;;;;;;;;13.20;99.90;;;;;;5074488;27;2054;-56
2022/10/04 15:27:22;;;;;;;;;;;13.20;99.90;;;;;;5104752;27;1457;-57
2022/10/04 15:30:09;;;;;;;;;;;13.10;99.90;;;;;;5075894;27;1657;-57
2022/10/04 15:32:54;;;;;;;;;;;13.00;99.90;;;;;;5103441;27;2022;-57
2022/10/04 15:35:38;;;;;;;;;;;12.90;99.90;;;;;;5102103;27;1939;-57
2022/10/04 15:38:19;;;;;;;;;;;12.70;99.90;;;;;;5049138;27;1748;-57
2022/10/04 15:41:02;;;;;;;;;;;12.70;99.90;;;;;;5087604;27;1556;-57
2022/10/04 15:43:43;;;;;;;;;;;12.60;99.90;;;;;;5107190;27;1581;-57
2022/10/04 15:46:31;;;;;;;;;;;12.50;99.90;;;;;;5108127;27;1426;-57
2022/10/04 15:49:30;;;;;;;;;;;12.40;99.90;;;;;;5087277;27;1576;-57
2022/10/04 15:52:14;;;;;;;;;;;12.30;99.90;;;;;;5111164;27;1312;-57
2022/10/04 15:55:10;;;;;;;;;;;12.20;99.90;;;;;;5110625;27;1615;-57
2022/10/04 15:58:11;;;;;;;;;;;12.10;99.90;;;;;;5109963;27;1395;-57
2022/10/04 16:00:56;;;;;;;;;;;12.00;99.90;;;;;;5070867;27;1762;-55
2022/10/04 16:03:41;;;;;;;;;;;11.90;99.90;;;;;;5110641;27;1460;-57
2022/10/04 16:06:22;;;;;;;;;;;11.70;99.90;;;;;;5111010;27;1272;-57
2022/10/04 16:09:17;;;;;;;;;;;11.50;99.90;;;;;;5109587;27;1402;-57
2022/10/04 16:12:01;;;;;;;;;;;11.40;99.90;;;;;;5109307;27;1866;-57
2022/10/04 16:14:57;;;;;;;;;;;11.20;99.90;;;;;;5071702;27;1471;-57
2022/10/04 16:17:48;;;;;;;;;;;11.00;99.90;;;;;;5100810;27;2069;-57
2022/10/04 16:20:35;;;;;;;;;;;10.80;99.90;;;;;;5088709;27;1860;-57
2022/10/04 16:23:32;;;;;;;;;;;10.60;99.90;;;;;;5105309;27;1632;-54
2022/10/04 16:26:14;;;;;;;;;;;10.30;99.90;;;;;;5111045;27;1174;-58
2022/10/04 16:29:11;;;;;;;;;;;10.10;99.90;;;;;;5110751;27;1643;-57
2022/10/04 16:31:55;;;;;;;;;;;9.90;99.90;;;;;;5109462;27;1525;-57
2022/10/04 16:34:54;;;;;;;;;;;9.70;99.90;;;;;;5111442;27;1498;-57
2022/10/04 16:37:36;;;;;;;;;;;9.40;99.90;;;;;;5095200;27;1596;-55
2022/10/04 16:40:25;;;;;;;;;;;9.20;99.90;;;;;;5112731;27;1429;-57
2022/10/04 16:43:06;;;;;;;;;;;8.90;99.90;;;;;;5113251;27;1324;-57
2022/10/04 16:45:49;;;;;;;;;;;8.80;99.90;;;;;;5111957;27;1405;-57
2022/10/04 16:48:32;;;;;;;;;;;8.60;99.90;;;;;;5112175;27;1668;-55